createdAt,value
2023-02-23T00:01:25.837Z,99.90
2023-02-23T00:03:56.206Z,99.90
2023-02-23T00:06:24.710Z,99.90
2023-02-23T00:08:52.341Z,99.90
2023-02-23T00:11:20.234Z,99.90
2023-02-23T00:13:50.038Z,99.90
2023-02-23T00:16:22.681Z,99.90
2023-02-23T00:18:53.629Z,99.90
2023-02-23T00:21:29.268Z,99.90
2023-02-23T00:24:00.952Z,99.90
2023-02-23T00:26:31.565Z,99.90
2023-02-23T00:28:58.557Z,99.90
2023-02-23T00:31:27.259Z,99.90
2023-02-23T00:33:56.912Z,99.90
2023-02-23T00:36:26.631Z,99.90
2023-02-23T00:39:00.346Z,99.90
2023-02-23T00:41:30.804Z,99.90
2023-02-23T00:43:59.322Z,99.90
2023-02-23T00:46:28.642Z,99.90
2023-02-23T00:48:57.086Z,99.90
2023-02-23T00:51:32.508Z,99.90
2023-02-23T00:54:00.579Z,99.90
2023-02-23T00:56:27.920Z,99.90
2023-02-23T00:58:55.546Z,99.90
2023-02-23T01:01:23.273Z,99.90
2023-02-23T01:03:50.731Z,99.90
2023-02-23T01:06:17.681Z,99.90
2023-02-23T01:08:49.062Z,99.90
2023-02-23T01:11:21.786Z,99.90
2023-02-23T01:13:52.071Z,99.90
2023-02-23T01:16:21.314Z,99.90
2023-02-23T01:18:48.951Z,99.90
2023-02-23T01:21:22.808Z,99.90
2023-02-23T01:23:50.753Z,99.90
2023-02-23T01:26:19.170Z,99.90
2023-02-23T01:28:57.949Z,99.90
2023-02-23T01:31:26.024Z,99.90
2023-02-23T01:34:01.647Z,99.90
2023-02-23T01:36:32.611Z,99.90
2023-02-23T01:39:00.114Z,99.90
2023-02-23T01:41:32.815Z,99.90
2023-02-23T01:44:20.039Z,99.90
2023-02-23T01:46:49.266Z,99.90
2023-02-23T01:49:23.504Z,99.90
2023-02-23T01:52:02.220Z,99.90
2023-02-23T01:54:33.193Z,99.90
2023-02-23T01:57:02.722Z,99.90
2023-02-23T01:59:41.925Z,99.90
2023-02-23T02:02:09.424Z,99.90
2023-02-23T02:04:44.686Z,99.90
2023-02-23T02:07:16.050Z,99.90
2023-02-23T02:10:04.286Z,99.90
2023-02-23T02:12:31.043Z,99.90
2023-02-23T02:14:59.987Z,99.90
2023-02-23T02:17:41.685Z,99.90
2023-02-23T02:20:52.277Z,99.90
2023-02-23T02:23:53.414Z,99.90
2023-02-23T02:26:24.252Z,99.90
2023-02-23T02:29:28.748Z,99.90
2023-02-23T02:32:24.527Z,99.90
2023-02-23T02:35:18.932Z,99.90
2023-02-23T02:38:03.825Z,99.90
2023-02-23T02:40:30.747Z,99.90
2023-02-23T02:43:11.519Z,99.90
2023-02-23T02:45:44.520Z,99.90
2023-02-23T02:48:14.296Z,99.90
2023-02-23T02:50:52.974Z,99.90
2023-02-23T02:53:47.394Z,99.90
2023-02-23T02:56:19.782Z,99.90
2023-02-23T02:58:50.066Z,99.90
2023-02-23T03:01:36.868Z,99.90
2023-02-23T03:04:39.436Z,99.90
2023-02-23T03:07:39.192Z,99.90
2023-02-23T03:10:38.438Z,99.90
2023-02-23T03:13:29.503Z,99.90
2023-02-23T03:16:47.267Z,99.90
2023-02-23T03:19:42.304Z,99.90
2023-02-23T03:22:36.877Z,99.90
2023-02-23T03:25:25.379Z,99.90
2023-02-23T03:28:50.117Z,99.90
2023-02-23T03:32:03.160Z,99.90
2023-02-23T03:35:14.249Z,99.90
2023-02-23T03:38:06.777Z,99.90
2023-02-23T03:40:56.431Z,99.90
2023-02-23T03:43:55.722Z,99.90
2023-02-23T03:46:43.976Z,99.90
2023-02-23T03:49:31.649Z,99.90
2023-02-23T03:52:22.542Z,99.90
2023-02-23T03:55:14.539Z,99.90
2023-02-23T03:58:02.262Z,99.90
2023-02-23T04:00:51.080Z,99.90
2023-02-23T04:03:38.259Z,99.90
2023-02-23T04:06:28.584Z,99.90
2023-02-23T04:09:18.285Z,99.90
2023-02-23T04:12:25.844Z,99.90
2023-02-23T04:15:01.680Z,99.90
2023-02-23T04:17:30.048Z,99.90
2023-02-23T04:19:57.098Z,99.90
2023-02-23T04:22:24.358Z,99.90
2023-02-23T04:24:51.442Z,99.90
2023-02-23T04:27:18.362Z,99.90
2023-02-23T04:29:45.348Z,99.90
2023-02-23T04:32:18.636Z,99.90
2023-02-23T04:34:45.570Z,99.90
2023-02-23T04:37:12.713Z,99.90
2023-02-23T04:39:39.710Z,99.90
2023-02-23T04:42:06.430Z,99.90
2023-02-23T04:44:33.095Z,99.90
2023-02-23T04:46:59.772Z,99.90
2023-02-23T04:49:26.502Z,99.90
2023-02-23T04:51:53.154Z,99.90
2023-02-23T04:54:19.826Z,99.90
2023-02-23T04:56:46.544Z,99.90
2023-02-23T04:59:13.315Z,99.90
2023-02-23T05:01:40.256Z,99.90
2023-02-23T05:04:07.010Z,99.90
2023-02-23T05:06:34.213Z,99.90
2023-02-23T05:09:00.879Z,99.90
2023-02-23T05:11:27.819Z,99.90
2023-02-23T05:13:54.622Z,99.90
2023-02-23T05:16:21.559Z,99.90
2023-02-23T05:18:48.430Z,99.90
2023-02-23T05:21:15.424Z,99.90
2023-02-23T05:23:42.258Z,99.90
2023-02-23T05:26:12.147Z,99.90
2023-02-23T05:28:40.470Z,99.90
2023-02-23T05:31:08.131Z,99.90
2023-02-23T05:33:42.277Z,99.90
2023-02-23T05:36:11.381Z,99.90
2023-02-23T05:38:39.724Z,99.90
2023-02-23T05:41:08.087Z,99.90
2023-02-23T05:43:35.160Z,99.90
2023-02-23T05:46:02.059Z,99.90
2023-02-23T05:48:29.508Z,99.90
2023-02-23T05:51:01.936Z,99.90
2023-02-23T05:53:28.693Z,99.90
2023-02-23T05:55:55.596Z,99.90
2023-02-23T05:58:22.485Z,99.90
2023-02-23T06:00:49.224Z,99.90
2023-02-23T06:03:16.022Z,99.90
2023-02-23T06:05:43.134Z,99.90
2023-02-23T06:08:09.810Z,99.90
2023-02-23T06:10:36.469Z,99.90
2023-02-23T06:13:03.914Z,99.90
2023-02-23T06:15:30.911Z,99.90
2023-02-23T06:17:57.568Z,99.90
2023-02-23T06:20:24.296Z,99.90
2023-02-23T06:22:50.956Z,99.90
2023-02-23T06:25:17.768Z,99.90
2023-02-23T06:27:45.411Z,99.90
2023-02-23T06:30:12.755Z,99.90
2023-02-23T06:32:39.490Z,99.90
2023-02-23T06:35:07.362Z,99.90
2023-02-23T06:37:35.251Z,99.90
2023-02-23T06:40:03.346Z,99.90
2023-02-23T06:42:30.031Z,99.90
2023-02-23T06:44:56.676Z,99.90
2023-02-23T06:47:23.407Z,99.90
2023-02-23T06:49:50.061Z,99.90
2023-02-23T06:52:16.788Z,99.90
2023-02-23T06:54:43.647Z,99.90
2023-02-23T06:57:11.278Z,99.90
2023-02-23T06:59:39.190Z,99.90
2023-02-23T07:02:06.268Z,99.90
2023-02-23T07:04:33.232Z,99.90
2023-02-23T07:06:59.915Z,99.90
2023-02-23T07:09:26.723Z,99.90
2023-02-23T07:11:53.382Z,99.90
2023-02-23T07:14:26.356Z,99.90
2023-02-23T07:16:54.166Z,99.90
2023-02-23T07:19:20.926Z,99.90
2023-02-23T07:21:47.797Z,99.90
2023-02-23T07:24:14.601Z,99.90
2023-02-23T07:26:43.497Z,99.90
2023-02-23T07:29:12.464Z,99.90
2023-02-23T07:31:40.114Z,99.90
2023-02-23T07:34:08.011Z,99.90
2023-02-23T07:36:35.540Z,99.90
2023-02-23T07:39:03.165Z,99.90
2023-02-23T07:41:29.817Z,99.90
2023-02-23T07:43:56.628Z,99.90
2023-02-23T07:46:23.414Z,99.90
2023-02-23T07:48:50.090Z,99.90
2023-02-23T07:51:17.757Z,99.90
2023-02-23T07:53:45.088Z,99.90
2023-02-23T07:56:12.990Z,99.90
2023-02-23T07:58:44.264Z,99.90
2023-02-23T08:01:12.362Z,99.90
2023-02-23T08:03:39.352Z,99.90
2023-02-23T08:06:06.889Z,99.90
2023-02-23T08:08:35.285Z,99.90
2023-02-23T08:11:04.689Z,99.90
2023-02-23T08:13:31.856Z,99.90
2023-02-23T08:15:59.036Z,99.90
2023-02-23T08:18:26.360Z,99.90
2023-02-23T08:21:02.368Z,99.90
2023-02-23T08:23:33.634Z,99.90
2023-02-23T08:26:01.789Z,99.90
2023-02-23T08:28:29.645Z,99.90
2023-02-23T08:30:56.991Z,99.90
2023-02-23T08:33:24.079Z,99.90
2023-02-23T08:35:53.511Z,99.90
2023-02-23T08:38:20.364Z,99.90
2023-02-23T08:40:47.404Z,99.90
2023-02-23T08:43:14.184Z,99.90
2023-02-23T08:45:40.914Z,99.90
2023-02-23T08:48:09.031Z,99.90
2023-02-23T08:50:35.895Z,99.90
2023-02-23T08:53:02.792Z,99.90
2023-02-23T08:55:29.477Z,99.90
2023-02-23T08:57:56.180Z,99.90
2023-02-23T09:00:23.362Z,99.90
2023-02-23T09:02:50.115Z,99.90
2023-02-23T09:05:17.133Z,99.90
2023-02-23T09:07:47.302Z,99.90
2023-02-23T09:10:16.356Z,99.90
2023-02-23T09:12:43.176Z,99.90
2023-02-23T09:15:10.305Z,99.90
2023-02-23T09:17:37.916Z,99.90
2023-02-23T09:20:05.696Z,99.90
2023-02-23T09:22:32.713Z,99.90
2023-02-23T09:24:59.578Z,99.90
2023-02-23T09:27:26.444Z,99.90
2023-02-23T09:29:53.179Z,99.90
2023-02-23T09:32:19.962Z,99.90
2023-02-23T09:34:48.607Z,99.90
2023-02-23T09:37:15.882Z,99.90
2023-02-23T09:39:43.606Z,99.90
2023-02-23T09:42:20.037Z,99.90
2023-02-23T09:44:57.647Z,99.90
2023-02-23T09:47:30.883Z,99.90
2023-02-23T09:50:02.993Z,99.90
2023-02-23T09:52:40.041Z,99.90
2023-02-23T09:55:09.782Z,99.90
2023-02-23T09:57:42.938Z,99.90
2023-02-23T10:00:27.448Z,99.90
2023-02-23T10:03:04.361Z,99.90
2023-02-23T10:05:35.680Z,99.90
2023-02-23T10:08:18.465Z,99.90
2023-02-23T10:10:50.949Z,99.90
2023-02-23T10:13:42.032Z,99.90
2023-02-23T10:16:27.469Z,99.90
2023-02-23T10:19:09.795Z,99.90
2023-02-23T10:21:44.815Z,99.90
2023-02-23T10:24:25.401Z,99.90
2023-02-23T10:27:06.351Z,99.90
2023-02-23T10:29:39.514Z,99.90
2023-02-23T10:32:22.479Z,99.90
2023-02-23T10:34:54.085Z,99.90
2023-02-23T10:37:21.103Z,99.90
2023-02-23T10:39:49.865Z,99.90
2023-02-23T10:42:23.144Z,99.90
2023-02-23T10:44:50.304Z,99.90
2023-02-23T10:47:21.250Z,99.90
2023-02-23T10:49:53.247Z,99.90
2023-02-23T10:52:33.630Z,99.90
2023-02-23T10:55:04.449Z,99.90
2023-02-23T10:57:34.140Z,99.90
2023-02-23T11:00:03.768Z,99.90
2023-02-23T11:02:30.975Z,99.90
2023-02-23T11:04:58.908Z,99.90
2023-02-23T11:07:32.436Z,99.90
2023-02-23T11:10:18.826Z,99.90
2023-02-23T11:12:45.538Z,99.90
2023-02-23T11:15:32.153Z,99.90
2023-02-23T11:18:04.742Z,99.90
2023-02-23T11:20:35.684Z,99.90
2023-02-23T11:23:17.424Z,99.90
2023-02-23T11:25:45.876Z,99.90
2023-02-23T11:28:22.402Z,99.90
2023-02-23T11:30:49.821Z,99.90
2023-02-23T11:33:31.491Z,99.90
2023-02-23T11:36:38.959Z,99.90
2023-02-23T11:39:10.413Z,99.90
2023-02-23T11:41:37.262Z,99.90
2023-02-23T11:44:06.365Z,99.90
2023-02-23T11:46:38.080Z,99.90
2023-02-23T11:49:14.873Z,99.90
2023-02-23T11:51:49.196Z,99.90
2023-02-23T11:54:34.006Z,99.90
2023-02-23T11:57:02.732Z,99.90
2023-02-23T11:59:33.928Z,99.90
2023-02-23T12:02:23.103Z,99.90
2023-02-23T12:05:16.098Z,99.90
2023-02-23T12:08:04.414Z,99.90
2023-02-23T12:10:55.569Z,99.90
2023-02-23T12:13:30.729Z,99.90
2023-02-23T12:16:04.973Z,99.90
2023-02-23T12:18:44.172Z,99.90
2023-02-23T12:21:41.979Z,99.90
2023-02-23T12:24:16.581Z,99.90
2023-02-23T12:26:55.501Z,99.90
2023-02-23T12:29:39.198Z,99.90
2023-02-23T12:32:17.969Z,99.90
2023-02-23T12:34:54.241Z,99.90
2023-02-23T12:37:29.067Z,99.70
2023-02-23T12:40:28.026Z,99.90
2023-02-23T12:43:01.570Z,99.90
2023-02-23T12:45:39.707Z,99.90
2023-02-23T12:48:15.678Z,99.90
2023-02-23T12:50:53.669Z,99.90
2023-02-23T12:53:32.524Z,99.90
2023-02-23T12:56:22.134Z,99.90
2023-02-23T12:59:19.768Z,99.90
2023-02-23T13:02:08.414Z,99.90
2023-02-23T13:05:15.883Z,99.90
2023-02-23T13:07:52.800Z,98.90
2023-02-23T13:10:38.585Z,99.30
2023-02-23T13:13:17.488Z,99.90
2023-02-23T13:16:05.700Z,99.90
2023-02-23T13:18:55.639Z,99.90
2023-02-23T13:21:58.163Z,99.90
2023-02-23T13:24:35.128Z,96.50
2023-02-23T13:27:23.797Z,91.00
2023-02-23T13:29:55.178Z,89.00
2023-02-23T13:32:32.451Z,83.70
2023-02-23T13:35:05.361Z,81.10
2023-02-23T13:37:41.043Z,85.10
2023-02-23T13:40:45.701Z,91.30
2023-02-23T13:43:52.220Z,93.20
2023-02-23T13:46:52.739Z,92.20
2023-02-23T13:49:41.946Z,95.70
2023-02-23T13:52:38.224Z,95.10
2023-02-23T13:55:24.936Z,90.80
2023-02-23T13:57:53.406Z,83.60
2023-02-23T14:00:21.643Z,87.20
2023-02-23T14:02:49.442Z,86.20
2023-02-23T14:05:25.876Z,79.60
2023-02-23T14:07:59.020Z,77.00
2023-02-23T14:10:29.609Z,75.40
2023-02-23T14:13:14.477Z,70.30
2023-02-23T14:15:48.424Z,65.00
2023-02-23T14:18:21.006Z,59.50
2023-02-23T14:20:58.770Z,59.40
2023-02-23T14:23:26.269Z,60.00
2023-02-23T14:26:09.376Z,54.90
2023-02-23T14:28:39.210Z,59.50
2023-02-23T14:31:16.040Z,61.90
2023-02-23T14:33:43.001Z,65.50
2023-02-23T14:36:22.101Z,66.00
2023-02-23T14:39:02.952Z,68.80
2023-02-23T14:41:41.025Z,74.30
2023-02-23T14:44:29.032Z,77.20
2023-02-23T14:47:07.144Z,79.70
2023-02-23T14:49:43.452Z,80.30
2023-02-23T14:52:19.736Z,82.90
2023-02-23T14:54:46.770Z,84.10
2023-02-23T14:57:36.161Z,84.30
2023-02-23T15:00:27.651Z,85.10
2023-02-23T15:03:04.584Z,83.00
2023-02-23T15:05:42.755Z,76.50
2023-02-23T15:08:17.115Z,78.50
2023-02-23T15:10:46.300Z,78.80
2023-02-23T15:13:32.662Z,80.60
2023-02-23T15:16:05.375Z,83.50
2023-02-23T15:19:28.365Z,83.30
2023-02-23T15:21:57.459Z,83.40
2023-02-23T15:24:47.390Z,87.10
2023-02-23T15:27:44.143Z,85.60
2023-02-23T15:30:32.905Z,85.00
2023-02-23T15:33:13.818Z,82.60
2023-02-23T15:35:55.318Z,84.00
2023-02-23T15:38:42.956Z,85.40
2023-02-23T15:41:29.258Z,87.20
2023-02-23T15:44:05.639Z,88.60
2023-02-23T15:46:34.236Z,90.00
2023-02-23T15:49:03.507Z,90.50
2023-02-23T15:51:38.214Z,91.30
2023-02-23T15:54:16.312Z,91.90
2023-02-23T15:56:47.014Z,93.00
2023-02-23T15:59:23.957Z,93.50
2023-02-23T16:01:54.056Z,94.60
2023-02-23T16:04:25.874Z,95.60
2023-02-23T16:06:55.832Z,94.70
2023-02-23T16:09:24.189Z,95.40
2023-02-23T16:11:55.318Z,96.10
2023-02-23T16:14:24.318Z,97.70
2023-02-23T16:17:09.913Z,96.70
2023-02-23T16:19:41.062Z,97.30
2023-02-23T16:22:19.095Z,97.80
2023-02-23T16:24:48.942Z,98.00
2023-02-23T16:27:16.463Z,98.10
2023-02-23T16:29:43.218Z,98.50
2023-02-23T16:32:21.311Z,99.10
2023-02-23T16:34:51.127Z,99.90
2023-02-23T16:37:31.304Z,99.90
2023-02-23T16:39:58.087Z,99.90
2023-02-23T16:42:34.909Z,99.90
2023-02-23T16:45:02.124Z,99.90
2023-02-23T16:47:36.333Z,99.90
2023-02-23T16:50:20.462Z,99.90
2023-02-23T16:52:51.710Z,99.90
2023-02-23T16:55:25.698Z,99.90
2023-02-23T16:58:00.378Z,99.90
2023-02-23T17:00:30.321Z,99.90
2023-02-23T17:02:58.621Z,99.90
2023-02-23T17:05:25.391Z,99.90
2023-02-23T17:07:53.005Z,99.90
2023-02-23T17:10:30.493Z,99.90
2023-02-23T17:13:00.109Z,99.90
2023-02-23T17:15:29.142Z,99.90
2023-02-23T17:17:56.582Z,99.90
2023-02-23T17:20:26.921Z,99.90
2023-02-23T17:22:56.192Z,99.90
2023-02-23T17:25:26.559Z,99.90
2023-02-23T17:27:54.432Z,99.90
2023-02-23T17:30:22.296Z,99.90
2023-02-23T17:32:50.797Z,99.90
2023-02-23T17:35:18.722Z,99.90
2023-02-23T17:37:46.668Z,99.90
2023-02-23T17:40:16.548Z,99.90
2023-02-23T17:42:43.406Z,99.90
2023-02-23T17:45:10.644Z,99.90
2023-02-23T17:47:40.948Z,99.90
2023-02-23T17:50:08.068Z,99.90
2023-02-23T17:52:34.881Z,99.90
2023-02-23T17:55:01.783Z,99.90
2023-02-23T17:57:30.553Z,99.90
2023-02-23T17:59:57.582Z,99.90
2023-02-23T18:02:25.002Z,99.90
2023-02-23T18:04:52.257Z,99.90
2023-02-23T18:07:21.022Z,99.90
2023-02-23T18:09:50.044Z,99.90
2023-02-23T18:12:19.137Z,99.90
2023-02-23T18:14:46.565Z,99.90
2023-02-23T18:17:14.816Z,99.90
2023-02-23T18:19:42.162Z,99.90
2023-02-23T18:22:09.244Z,99.90
2023-02-23T18:24:37.112Z,99.90
2023-02-23T18:27:04.384Z,99.90
2023-02-23T18:29:34.112Z,99.90
2023-02-23T18:32:02.703Z,99.90
2023-02-23T18:34:30.056Z,99.90
2023-02-23T18:37:03.387Z,99.90
2023-02-23T18:39:33.520Z,99.90
2023-02-23T18:42:00.721Z,99.90
2023-02-23T18:44:27.690Z,99.90
2023-02-23T18:46:55.083Z,99.90
2023-02-23T18:49:23.968Z,99.90
2023-02-23T18:51:50.758Z,99.90
2023-02-23T18:54:18.497Z,99.90
2023-02-23T18:56:46.966Z,99.90
2023-02-23T18:59:14.304Z,99.90
2023-02-23T19:01:45.301Z,99.90
2023-02-23T19:04:12.818Z,99.90
2023-02-23T19:06:44.942Z,99.90
2023-02-23T19:09:14.250Z,99.90
2023-02-23T19:11:42.821Z,99.90
2023-02-23T19:14:13.455Z,99.90
2023-02-23T19:16:41.156Z,99.90
2023-02-23T19:19:08.314Z,99.90
2023-02-23T19:21:35.913Z,99.90
2023-02-23T19:24:04.042Z,99.90
2023-02-23T19:26:31.930Z,99.90
2023-02-23T19:28:58.767Z,99.90
2023-02-23T19:31:26.568Z,99.90
2023-02-23T19:33:55.966Z,99.90
2023-02-23T19:36:29.615Z,99.90
2023-02-23T19:39:06.097Z,99.90
2023-02-23T19:41:34.127Z,99.90
2023-02-23T19:44:01.311Z,99.90
2023-02-23T19:46:28.513Z,99.90
2023-02-23T19:48:56.099Z,99.90
2023-02-23T19:51:23.456Z,99.90
2023-02-23T19:53:54.310Z,99.90
2023-02-23T19:56:21.694Z,99.90
2023-02-23T19:58:49.348Z,99.90
2023-02-23T20:01:19.120Z,99.90
2023-02-23T20:03:49.541Z,99.90
2023-02-23T20:06:17.997Z,99.90
2023-02-23T20:08:45.283Z,99.90
2023-02-23T20:11:12.406Z,99.90
2023-02-23T20:13:40.378Z,99.90
2023-02-23T20:16:09.838Z,99.90
2023-02-23T20:18:38.683Z,99.90
2023-02-23T20:21:11.092Z,99.90
2023-02-23T20:23:37.859Z,99.90
2023-02-23T20:26:06.366Z,99.90
2023-02-23T20:28:33.886Z,99.90
2023-02-23T20:31:01.741Z,99.90
2023-02-23T20:33:32.005Z,99.90
2023-02-23T20:35:58.843Z,99.90
2023-02-23T20:38:25.517Z,99.90
2023-02-23T20:40:52.964Z,99.90
2023-02-23T20:43:19.778Z,99.90
2023-02-23T20:45:46.768Z,99.90
2023-02-23T20:48:13.567Z,99.90
2023-02-23T20:50:42.409Z,99.90
2023-02-23T20:53:09.143Z,99.90
2023-02-23T20:55:36.928Z,99.90
2023-02-23T20:58:05.230Z,99.90
2023-02-23T21:00:32.350Z,99.90
2023-02-23T21:03:01.476Z,99.90
2023-02-23T21:05:31.030Z,99.90
2023-02-23T21:08:02.021Z,99.90
2023-02-23T21:10:35.611Z,99.90
2023-02-23T21:13:02.760Z,99.90
2023-02-23T21:15:30.097Z,99.90
2023-02-23T21:17:58.519Z,99.90
2023-02-23T21:20:27.903Z,99.90
2023-02-23T21:22:55.581Z,99.90
2023-02-23T21:25:24.754Z,99.90
2023-02-23T21:27:52.135Z,99.90
2023-02-23T21:30:22.591Z,99.90
2023-02-23T21:32:52.015Z,99.90
2023-02-23T21:35:19.777Z,99.90
2023-02-23T21:37:47.394Z,99.90
2023-02-23T21:40:20.630Z,99.90
2023-02-23T21:42:47.968Z,99.90
2023-02-23T21:45:14.956Z,99.90
2023-02-23T21:47:44.624Z,99.90
2023-02-23T21:50:15.142Z,99.90
2023-02-23T21:52:45.375Z,99.90
2023-02-23T21:55:21.236Z,99.90
2023-02-23T21:57:48.853Z,99.90
2023-02-23T22:00:16.468Z,99.90
2023-02-23T22:02:46.294Z,99.90
2023-02-23T22:05:15.343Z,99.90
2023-02-23T22:07:48.268Z,99.90
2023-02-23T22:10:15.771Z,99.90
2023-02-23T22:12:42.518Z,99.90
2023-02-23T22:15:12.574Z,99.90
2023-02-23T22:17:39.256Z,99.90
2023-02-23T22:20:07.412Z,99.90
2023-02-23T22:22:36.190Z,99.90
2023-02-23T22:25:07.580Z,99.90
2023-02-23T22:27:34.302Z,99.90
2023-02-23T22:30:01.794Z,99.90
2023-02-23T22:32:32.779Z,99.90
2023-02-23T22:35:00.897Z,99.90
2023-02-23T22:37:32.101Z,99.90
2023-02-23T22:40:16.529Z,99.90
2023-02-23T22:42:49.229Z,99.90
2023-02-23T22:45:16.626Z,99.90
2023-02-23T22:47:43.356Z,99.90
2023-02-23T22:50:12.138Z,99.90
2023-02-23T22:52:38.941Z,99.90
2023-02-23T22:55:06.067Z,99.90
2023-02-23T22:57:32.889Z,99.90
2023-02-23T23:00:08.291Z,99.90
2023-02-23T23:02:36.229Z,99.90
2023-02-23T23:05:03.212Z,99.90
2023-02-23T23:07:31.168Z,99.90
2023-02-23T23:09:58.987Z,99.90
2023-02-23T23:12:28.042Z,99.90
2023-02-23T23:15:01.358Z,99.90
2023-02-23T23:17:31.971Z,99.90
2023-02-23T23:20:00.298Z,99.90
2023-02-23T23:22:27.588Z,99.90
2023-02-23T23:24:54.372Z,99.90
2023-02-23T23:27:21.498Z,99.90
2023-02-23T23:29:48.876Z,99.90
2023-02-23T23:32:19.256Z,99.90
2023-02-23T23:34:49.556Z,99.90
2023-02-23T23:37:18.149Z,99.90
2023-02-23T23:39:45.422Z,99.90
2023-02-23T23:42:12.881Z,99.90
2023-02-23T23:44:39.668Z,99.90
2023-02-23T23:47:06.487Z,99.90
2023-02-23T23:49:39.683Z,99.90
2023-02-23T23:52:06.418Z,99.90
2023-02-23T23:54:38.970Z,99.90
2023-02-23T23:57:06.658Z,99.90
2023-02-23T23:59:35.204Z,99.90
